Time;durP1;ratioP1;P1;durP2;ratioP2;P2;SDS_P1;SDS_P2;PMS_P1;PMS_P2;Temp;Humidity;BMP_temperature;BMP_pressure;BME280_temperature;BME280_humidity;BME280_pressure;Samples;Min_cycle;Max_cycle;Signal;HPM_P1;HPM_P2
2021/12/09 00:01:50;;;;;;;17.58;9.50;;;;;;;-9.70;81.10;99693.88;5007141;28;20060;-85
2021/12/09 00:04:27;;;;;;;19.17;9.43;;;;;;;-9.68;81.21;99694.63;4992645;28;20551;-85
2021/12/09 00:06:55;;;;;;;19.17;10.15;;;;;;;-9.70;81.10;99707.78;4991927;28;20510;-84
2021/12/09 00:09:22;;;;;;;17.38;8.52;;;;;;;-9.69;81.03;99708.63;4993108;28;20054;-85
2021/12/09 00:11:51;;;;;;;17.52;8.13;;;;;;;-9.67;81.21;99706.75;4992068;28;20053;-84
2021/12/09 00:14:24;;;;;;;23.40;9.73;;;;;;;-9.67;81.17;99717.19;4992348;28;20149;-85
2021/12/09 00:16:55;;;;;;;21.65;10.02;;;;;;;-9.60;81.34;99718.47;4992347;28;20053;-84
2021/12/09 00:19:26;;;;;;;18.00;9.38;;;;;;;-9.60;81.10;99700.19;4992550;28;20050;-85
2021/12/09 00:21:56;;;;;;;20.42;9.40;;;;;;;-9.57;81.26;99688.69;4993324;28;20232;-84
2021/12/09 00:24:26;;;;;;;18.30;9.52;;;;;;;-9.51;81.05;99685.69;4998076;28;20113;-85
2021/12/09 00:26:55;;;;;;;18.98;9.23;;;;;;;-9.47;80.95;99685.41;4995846;28;20057;-84
2021/12/09 00:29:26;;;;;;;17.02;8.55;;;;;;;-9.44;80.51;99692.22;4974573;28;20058;-84
2021/12/09 00:31:59;;;;;;;17.27;9.60;;;;;;;-9.40;81.02;99689.25;4990854;28;20050;-83
2021/12/09 00:34:34;;;;;;;19.20;9.73;;;;;;;-9.38;80.79;99699.63;4992037;28;20489;-85
2021/12/09 00:39:49;;;;;;;17.88;8.43;;;;;;;-9.39;81.22;99698.81;4991585;28;20061;-84
2021/12/09 00:42:26;;;;;;;20.98;9.63;;;;;;;-9.36;81.07;99708.22;4992067;28;20054;-85
2021/12/09 00:44:56;;;;;;;19.73;8.93;;;;;;;-9.37;81.31;99698.69;4991750;28;20050;-83
2021/12/09 00:47:26;;;;;;;18.33;9.82;;;;;;;-9.40;81.42;99701.50;4992098;28;20097;-85
2021/12/09 00:49:55;;;;;;;18.30;9.07;;;;;;;-9.26;81.83;99719.75;4974374;28;20145;-83
2021/12/09 00:52:27;;;;;;;19.77;10.60;;;;;;;-9.26;81.83;99698.81;4973802;28;20061;-85
2021/12/09 00:54:56;;;;;;;17.73;9.60;;;;;;;-9.34;81.72;99679.34;4991822;28;20073;-84
2021/12/09 00:57:24;;;;;;;17.83;9.48;;;;;;;-9.26;81.44;99701.44;4974918;28;20050;-85
2021/12/09 00:59:51;;;;;;;17.23;9.25;;;;;;;-9.25;81.74;99715.34;4991881;28;20050;-85
2021/12/09 01:02:21;;;;;;;20.00;9.90;;;;;;;-9.31;81.85;99703.53;4974780;28;20050;-84
2021/12/09 01:04:49;;;;;;;15.70;7.43;;;;;;;-9.32;82.02;99714.06;4995175;28;20057;-84
2021/12/09 01:07:17;;;;;;;17.23;8.15;;;;;;;-9.48;81.83;99690.72;5003631;28;20080;-84
2021/12/09 01:09:47;;;;;;;15.68;8.50;;;;;;;-9.41;81.96;99711.13;4991878;28;20417;-84
2021/12/09 01:12:17;;;;;;;16.60;8.60;;;;;;;-9.40;81.89;99717.19;4974127;28;20054;-85
2021/12/09 01:14:44;;;;;;;16.45;8.38;;;;;;;-9.40;81.95;99714.56;4993637;28;20521;-86
2021/12/09 01:17:11;;;;;;;19.38;9.07;;;;;;;-9.36;81.90;99723.91;4995693;28;20057;-85
2021/12/09 01:19:40;;;;;;;18.00;10.10;;;;;;;-9.43;81.89;99720.84;4978054;28;20101;-85
2021/12/09 01:22:07;;;;;;;20.15;8.27;;;;;;;-9.38;81.86;99712.69;4995707;28;20097;-84
2021/12/09 01:24:34;;;;;;;17.83;8.60;;;;;;;-9.41;81.66;99713.75;4995309;28;20560;-85
2021/12/09 01:27:02;;;;;;;23.65;9.30;;;;;;;-9.30;81.62;99720.88;4995403;28;20042;-84
2021/12/09 01:29:37;;;;;;;18.05;9.43;;;;;;;-9.29;81.56;99716.47;4978547;28;20051;-83
2021/12/09 01:32:10;;;;;;;16.52;8.65;;;;;;;-9.30;81.72;99707.81;4995785;28;20051;-84
2021/12/09 01:34:38;;;;;;;16.38;8.23;;;;;;;-9.32;81.66;99698.38;4995136;28;20453;-85
2021/12/09 01:37:05;;;;;;;18.48;8.60;;;;;;;-9.23;81.59;99719.53;4995295;28;20560;-85
2021/12/09 01:39:34;;;;;;;17.08;9.25;;;;;;;-9.25;81.34;99708.34;4994839;28;20043;-83
2021/12/09 01:42:06;;;;;;;19.20;9.10;;;;;;;-9.32;81.39;99704.44;4995251;28;20104;-84
2021/12/09 01:44:34;;;;;;;18.10;8.95;;;;;;;-9.16;81.37;99726.03;4994722;28;20057;-85
2021/12/09 01:47:09;;;;;;;18.00;7.72;;;;;;;-9.27;81.00;99707.59;4978520;28;20064;-83
2021/12/09 01:49:37;;;;;;;20.27;9.20;;;;;;;-9.26;80.82;99706.66;4994884;28;20466;-85
2021/12/09 01:52:06;;;;;;;15.70;8.70;;;;;;;-9.34;80.57;99689.81;4977819;28;20038;-85
2021/12/09 01:54:36;;;;;;;16.92;8.52;;;;;;;-9.22;80.74;99709.91;4994560;28;20582;-84
2021/12/09 01:57:05;;;;;;;16.38;8.85;;;;;;;-9.18;80.56;99720.06;4994729;28;20046;-84
2021/12/09 01:59:33;;;;;;;16.00;8.82;;;;;;;-9.23;80.50;99716.91;4996814;28;20057;-85
2021/12/09 02:02:03;;;;;;;15.40;7.90;;;;;;;-9.26;80.34;99714.50;4980203;28;20046;-84
2021/12/09 02:04:30;;;;;;;17.85;9.20;;;;;;;-9.16;80.64;99740.91;4994780;28;20058;-85
2021/12/09 02:06:57;;;;;;;17.13;9.02;;;;;;;-9.14;80.81;99744.22;4994391;28;20055;-84
2021/12/09 02:09:24;;;;;;;14.48;7.25;;;;;;;-9.13;80.62;99734.63;4994244;28;20104;-84
2021/12/09 02:11:52;;;;;;;16.88;9.13;;;;;;;-9.13;80.42;99732.84;4994141;28;20085;-85
2021/12/09 02:14:19;;;;;;;14.30;7.18;;;;;;;-9.20;80.25;99724.56;4994683;28;20059;-85
2021/12/09 02:16:46;;;;;;;17.77;8.45;;;;;;;-9.21;80.38;99724.69;4994033;28;20054;-83
2021/12/09 02:19:16;;;;;;;17.17;8.15;;;;;;;-9.12;80.59;99742.34;4994491;28;20058;-85
2021/12/09 02:21:52;;;;;;;16.25;7.88;;;;;;;-9.10;80.27;99742.25;4993883;28;20466;-85
2021/12/09 02:24:23;;;;;;;17.15;8.20;;;;;;;-9.10;80.30;99744.88;4976642;28;20042;-85
2021/12/09 02:26:50;;;;;;;19.45;8.68;;;;;;;-9.05;80.19;99742.78;4993978;28;20047;-85
2021/12/09 02:29:17;;;;;;;15.50;8.65;;;;;;;-8.97;79.95;99741.34;4994270;28;20606;-85
2021/12/09 02:31:47;;;;;;;14.35;7.38;;;;;;;-9.03;80.25;99735.69;4994130;28;20050;-84
2021/12/09 02:34:18;;;;;;;17.67;8.80;;;;;;;-8.99;79.82;99745.84;4994036;28;20481;-84
2021/12/09 02:36:50;;;;;;;18.70;8.75;;;;;;;-9.00;79.97;99732.88;4994186;28;20189;-85
2021/12/09 02:39:18;;;;;;;15.57;7.93;;;;;;;-8.90;79.86;99762.69;4976762;28;20050;-84
2021/12/09 02:41:49;;;;;;;17.60;8.38;;;;;;;-8.93;79.67;99752.44;5001312;28;20069;-84
2021/12/09 02:44:20;;;;;;;16.50;8.18;;;;;;;-8.93;79.69;99754.22;4973955;28;20149;-84
2021/12/09 02:46:50;;;;;;;13.27;6.80;;;;;;;-8.93;79.58;99770.75;4993999;28;20050;-83
2021/12/09 02:49:21;;;;;;;17.30;8.48;;;;;;;-8.97;79.75;99761.44;4976748;28;20062;-84
2021/12/09 02:51:55;;;;;;;13.93;7.63;;;;;;;-9.01;79.27;99763.41;4993768;28;20061;-83
2021/12/09 02:54:23;;;;;;;15.70;8.48;;;;;;;-9.02;79.26;99748.66;4976611;28;20327;-84
2021/12/09 02:56:53;;;;;;;14.27;7.82;;;;;;;-9.01;79.41;99768.66;4995731;28;20531;-84
2021/12/09 02:59:21;;;;;;;16.35;8.23;;;;;;;-8.93;79.14;99770.75;4977054;28;20546;-84
2021/12/09 03:01:58;;;;;;;14.98;7.55;;;;;;;-8.93;79.04;99773.38;4975970;28;20169;-84
2021/12/09 03:04:50;;;;;;;16.42;8.20;;;;;;;-8.92;78.90;99775.03;4993938;28;20042;-85
2021/12/09 03:07:29;;;;;;;18.58;8.90;;;;;;;-8.96;78.84;99777.03;4993897;28;20105;-84
2021/12/09 03:10:09;;;;;;;17.85;8.68;;;;;;;-8.97;78.86;99783.19;4976527;28;20145;-84
2021/12/09 03:12:41;;;;;;;19.15;8.38;;;;;;;-8.99;78.80;99779.84;4993588;28;20085;-84
2021/12/09 03:15:10;;;;;;;17.67;7.82;;;;;;;-9.02;78.85;99774.81;5003957;28;20092;-83
2021/12/09 03:17:40;;;;;;;17.65;8.77;;;;;;;-9.00;78.96;99782.56;4994781;28;20509;-86
2021/12/09 03:20:09;;;;;;;18.08;8.73;;;;;;;-8.90;78.97;99788.88;4993412;28;20046;-84
2021/12/09 03:22:37;;;;;;;18.13;9.15;;;;;;;-8.85;79.09;99792.00;4993027;28;20077;-84
2021/12/09 03:25:12;;;;;;;13.13;7.40;;;;;;;-8.84;78.65;99788.44;4993314;28;20050;-83
2021/12/09 03:27:45;;;;;;;15.93;7.65;;;;;;;-8.79;78.51;99798.59;4991894;28;20050;-86
2021/12/09 03:30:16;;;;;;;16.02;7.40;;;;;;;-8.94;78.30;99787.38;4993447;28;20146;-85
2021/12/09 03:32:44;;;;;;;15.48;7.95;;;;;;;-8.89;78.40;99800.16;4993136;28;20608;-85
2021/12/09 03:35:12;;;;;;;19.63;9.43;;;;;;;-8.92;78.35;99798.59;4994807;28;20046;-85
2021/12/09 03:37:47;;;;;;;18.00;8.02;;;;;;;-8.88;78.25;99813.16;4996013;28;20070;-85
2021/12/09 03:40:15;;;;;;;19.98;9.73;;;;;;;-8.86;78.05;99810.41;4998606;28;20081;-84
2021/12/09 03:42:43;;;;;;;19.20;8.07;;;;;;;-8.87;78.08;99806.97;5015948;28;20069;-83
2021/12/09 03:45:12;;;;;;;19.23;8.50;;;;;;;-8.97;78.23;99792.81;4981185;28;20576;-85
2021/12/09 03:47:44;;;;;;;17.38;8.10;;;;;;;-8.90;77.96;99809.78;4994742;28;20049;-85
2021/12/09 03:50:15;;;;;;;19.33;8.20;;;;;;;-8.91;78.12;99812.50;4991468;28;20050;-85
2021/12/09 03:52:44;;;;;;;17.27;8.98;;;;;;;-8.98;78.00;99806.84;4996301;28;20117;-86
2021/12/09 03:55:11;;;;;;;18.27;7.88;;;;;;;-9.05;78.20;99805.56;4994511;28;20061;-85
2021/12/09 03:57:38;;;;;;;16.95;8.30;;;;;;;-9.08;78.02;99811.00;4992144;28;20417;-84
2021/12/09 04:00:08;;;;;;;15.70;8.48;;;;;;;-9.09;78.13;99815.38;4992571;28;20482;-84
2021/12/09 04:02:36;;;;;;;18.33;8.88;;;;;;;-9.15;78.20;99823.63;4992828;28;20060;-84
2021/12/09 04:05:05;;;;;;;19.45;9.07;;;;;;;-9.16;78.09;99822.78;4992373;28;20073;-83
2021/12/09 04:07:32;;;;;;;20.80;9.07;;;;;;;-9.14;78.27;99816.63;5007299;28;20046;-84
2021/12/09 04:09:59;;;;;;;15.63;7.70;;;;;;;-9.12;77.94;99822.59;4992009;28;20132;-85
2021/12/09 04:12:29;;;;;;;20.90;9.55;;;;;;;-9.15;78.06;99826.25;4992391;28;20089;-84
2021/12/09 04:14:57;;;;;;;20.20;8.77;;;;;;;-9.23;78.20;99815.44;4990741;28;20061;-85
2021/12/09 04:17:25;;;;;;;18.85;8.20;;;;;;;-9.23;78.19;99813.66;4994084;28;20058;-84
2021/12/09 04:19:53;;;;;;;19.77;9.32;;;;;;;-9.22;78.11;99817.94;5004568;28;20046;-84
2021/12/09 04:22:20;;;;;;;20.15;9.25;;;;;;;-9.20;78.12;99829.16;4991551;28;20057;-85
2021/12/09 04:24:50;;;;;;;20.83;9.40;;;;;;;-9.21;78.19;99824.88;4991988;28;20046;-86
2021/12/09 04:27:18;;;;;;;19.83;9.90;;;;;;;-9.19;78.13;99830.84;4990697;28;20054;-86
2021/12/09 04:29:46;;;;;;;20.77;8.40;;;;;;;-9.21;77.77;99818.81;4989933;28;20077;-85
2021/12/09 04:32:13;;;;;;;19.65;9.68;;;;;;;-9.20;77.59;99825.69;4974813;28;20049;-84
2021/12/09 04:34:41;;;;;;;22.33;9.38;;;;;;;-9.18;77.63;99819.44;4991576;28;20057;-85
2021/12/09 04:37:10;;;;;;;21.77;8.95;;;;;;;-9.20;77.56;99818.69;4991842;28;20141;-85
2021/12/09 04:39:41;;;;;;;21.77;8.85;;;;;;;-9.20;77.86;99820.47;4993906;28;20572;-85
2021/12/09 04:42:10;;;;;;;12.35;5.50;;;;;;;-9.24;77.50;99812.00;4990494;28;20128;-84
2021/12/09 04:44:37;;;;;;;20.38;9.07;;;;;;;-9.20;77.70;99812.63;4991484;28;20054;-84
2021/12/09 04:47:07;;;;;;;17.70;9.35;;;;;;;-9.27;77.85;99800.88;4990175;28;20137;-85
2021/12/09 04:49:35;;;;;;;20.98;9.60;;;;;;;-9.12;77.74;99814.75;4992784;28;20050;-85
2021/12/09 04:52:08;;;;;;;16.73;8.93;;;;;;;-9.17;78.05;99801.97;4990908;28;20050;-85
2021/12/09 04:54:41;;;;;;;18.98;9.40;;;;;;;-9.19;77.98;99799.47;4991324;28;20046;-85
2021/12/09 04:57:09;;;;;;;21.35;10.25;;;;;;;-9.06;78.07;99812.59;4991736;28;20070;-84
2021/12/09 04:59:37;;;;;;;15.65;7.85;;;;;;;-9.06;78.36;99809.09;4991385;28;20050;-85
2021/12/09 05:02:09;;;;;;;22.38;11.00;;;;;;;-9.09;78.25;99804.06;4992559;28;20046;-85
2021/12/09 05:04:39;;;;;;;23.58;9.32;;;;;;;-9.12;78.16;99802.50;5006920;28;20599;-85
2021/12/09 05:07:06;;;;;;;19.58;9.75;;;;;;;-9.04;78.16;99820.31;4990167;28;20050;-85
2021/12/09 05:09:49;;;;;;;21.15;10.32;;;;;;;-9.05;78.19;99821.25;4990426;28;20133;-83
2021/12/09 05:12:17;;;;;;;19.13;8.25;;;;;;;-9.04;78.27;99815.06;4992155;28;20054;-85
2021/12/09 05:14:51;;;;;;;18.02;7.78;;;;;;;-9.09;78.32;99823.22;4991658;28;20249;-86
2021/12/09 05:17:23;;;;;;;13.65;6.45;;;;;;;-9.07;78.38;99818.72;4974991;28;20141;-85
2021/12/09 05:19:50;;;;;;;21.77;10.30;;;;;;;-9.16;78.59;99820.19;4992073;28;20081;-85
2021/12/09 05:22:19;;;;;;;20.40;8.68;;;;;;;-9.04;78.58;99831.63;4975282;28;20070;-85
2021/12/09 05:24:49;;;;;;;21.75;9.55;;;;;;;-9.04;78.62;99831.63;4975117;28;20050;-86
2021/12/09 05:27:17;;;;;;;19.42;9.15;;;;;;;-9.08;78.84;99829.31;4963098;28;20050;-85
2021/12/09 05:29:53;;;;;;;20.17;8.60;;;;;;;-8.98;78.92;99841.69;4991921;28;20053;-85
2021/12/09 05:32:22;;;;;;;21.33;9.05;;;;;;;-8.98;78.44;99844.31;4991804;28;20502;-85
2021/12/09 05:34:50;;;;;;;18.42;8.73;;;;;;;-9.10;78.39;99833.78;4991687;28;20050;-86
2021/12/09 05:37:22;;;;;;;21.92;10.13;;;;;;;-9.06;78.52;99841.34;4991997;28;20054;-86
2021/12/09 05:39:56;;;;;;;19.20;8.95;;;;;;;-9.12;78.52;99836.50;4959127;28;20046;-86
2021/12/09 05:42:29;;;;;;;21.70;9.53;;;;;;;-9.14;78.73;99837.53;4974691;28;20077;-84
2021/12/09 05:44:59;;;;;;;16.77;8.48;;;;;;;-9.15;78.96;99844.53;4988694;28;20511;-85
2021/12/09 05:47:32;;;;;;;20.40;9.73;;;;;;;-9.20;78.84;99850.06;4992791;28;20066;-84
2021/12/09 05:50:05;;;;;;;19.52;8.70;;;;;;;-9.23;79.11;99850.28;4986717;28;20061;-85
2021/12/09 05:52:37;;;;;;;19.38;9.50;;;;;;;-9.28;79.00;99841.88;4965891;28;20058;-84
2021/12/09 05:55:04;;;;;;;21.55;9.60;;;;;;;-9.17;79.10;99852.47;4997619;28;20054;-85
2021/12/09 05:57:32;;;;;;;18.35;9.68;;;;;;;-9.07;79.06;99850.13;4994294;28;20046;-85
2021/12/09 06:00:00;;;;;;;21.67;11.25;;;;;;;-9.07;78.92;99833.59;4992462;28;20050;-85
2021/12/09 06:02:32;;;;;;;21.80;9.10;;;;;;;-8.98;78.83;99844.31;4993306;28;20054;-86
2021/12/09 06:05:01;;;;;;;21.70;9.82;;;;;;;-8.87;78.77;99856.69;4987163;28;20129;-85
2021/12/09 06:07:34;;;;;;;21.55;8.95;;;;;;;-8.82;78.69;99843.28;4993972;28;20062;-85
2021/12/09 06:10:05;;;;;;;20.98;9.77;;;;;;;-8.78;78.50;99856.09;4967504;28;20065;-85
2021/12/09 06:12:35;;;;;;;22.67;9.75;;;;;;;-8.70;78.47;99868.66;4976867;28;20058;-85
2021/12/09 06:15:03;;;;;;;14.60;7.68;;;;;;;-8.72;78.48;99866.13;4991174;28;20062;-85
2021/12/09 06:17:35;;;;;;;18.58;8.60;;;;;;;-8.61;78.59;99867.22;4995327;28;20054;-86
2021/12/09 06:20:03;;;;;;;18.70;9.95;;;;;;;-8.65;78.74;99855.28;4987125;28;20093;-89
2021/12/09 06:22:30;;;;;;;16.10;8.15;;;;;;;-8.59;78.76;99867.94;4986710;28;20046;-85
2021/12/09 06:24:57;;;;;;;20.63;8.65;;;;;;;-8.48;78.58;99868.09;4990963;28;20539;-85
2021/12/09 06:27:25;;;;;;;17.58;8.10;;;;;;;-8.45;78.19;99867.06;4990969;28;20097;-83
2021/12/09 06:29:52;;;;;;;14.95;8.15;;;;;;;-8.35;78.15;99868.06;4957354;28;20531;-86
2021/12/09 06:32:20;;;;;;;15.95;7.95;;;;;;;-8.23;78.28;99879.50;4992119;28;20058;-86
2021/12/09 06:34:53;;;;;;;19.05;9.05;;;;;;;-8.11;77.71;99881.28;4992798;28;20050;-86
2021/12/09 06:37:22;;;;;;;14.77;7.78;;;;;;;-8.18;77.43;99874.78;4974427;28;20137;-83
2021/12/09 06:39:54;;;;;;;15.18;7.78;;;;;;;-8.01;77.47;99887.56;4991334;28;20148;-84
2021/12/09 06:42:33;;;;;;;17.70;8.38;;;;;;;-7.92;77.39;99892.19;4969510;28;20486;-88
2021/12/09 06:45:12;;;;;;;16.33;8.32;;;;;;;-7.83;77.18;99900.38;4961791;28;20043;-85
2021/12/09 06:47:40;;;;;;;16.60;8.05;;;;;;;-7.83;77.29;99895.94;4992935;28;20050;-89
2021/12/09 06:50:12;;;;;;;17.02;8.52;;;;;;;-7.76;76.80;99901.63;4975391;28;20722;-86
2021/12/09 06:52:43;;;;;;;21.10;8.27;;;;;;;-7.77;76.73;99910.41;4974053;28;20046;-82
2021/12/09 06:55:21;;;;;;;13.13;7.20;;;;;;;-7.71;76.57;99910.00;4984982;28;20058;-82
2021/12/09 06:57:53;;;;;;;15.38;7.97;;;;;;;-7.78;76.55;99898.25;4973843;28;20054;-85
2021/12/09 07:00:29;;;;;;;17.20;8.45;;;;;;;-7.70;76.59;99914.28;4972522;28;20433;-84
2021/12/09 07:02:56;;;;;;;16.05;7.97;;;;;;;-7.60;76.76;99917.94;4981297;28;20050;-87
2021/12/09 07:05:26;;;;;;;17.80;8.63;;;;;;;-7.51;76.61;99922.56;4984328;28;20053;-85
2021/12/09 07:07:57;;;;;;;14.63;8.00;;;;;;;-7.43;76.17;99919.41;4984625;28;20145;-88
2021/12/09 07:10:26;;;;;;;19.10;9.27;;;;;;;-7.36;75.38;99914.59;4957951;28;20422;-86
2021/12/09 07:13:03;;;;;;;18.05;7.97;;;;;;;-7.33;74.95;99914.34;4991069;28;20057;-87
2021/12/09 07:15:32;;;;;;;18.02;8.27;;;;;;;-7.23;75.09;99916.22;4976110;28;20536;-84
2021/12/09 07:18:03;;;;;;;16.73;8.02;;;;;;;-6.91;74.46;99905.22;4976255;28;20047;-86
2021/12/09 07:20:31;;;;;;;18.17;7.95;;;;;;;-6.58;73.52;99917.66;4987821;28;20101;-84
2021/12/09 07:22:59;;;;;;;15.48;8.15;;;;;;;-6.88;73.33;99919.91;4975185;28;20059;-86
2021/12/09 07:25:28;;;;;;;15.50;8.65;;;;;;;-6.99;73.69;99918.91;5001894;28;20395;-87
2021/12/09 07:27:59;;;;;;;20.27;9.00;;;;;;;-7.06;74.01;99917.66;4991123;28;20085;-88
2021/12/09 07:30:28;;;;;;;17.45;9.10;;;;;;;-7.03;74.51;99933.16;4985256;28;20108;-87
2021/12/09 07:32:58;;;;;;;17.45;8.18;;;;;;;-6.99;74.50;99939.88;5019571;28;20045;-86
2021/12/09 07:35:30;;;;;;;14.40;7.75;;;;;;;-6.99;74.72;99944.28;4997588;28;20721;-85
2021/12/09 07:38:00;;;;;;;15.40;8.10;;;;;;;-7.05;74.50;99948.19;4989622;28;20126;-85
2021/12/09 07:40:27;;;;;;;16.27;8.05;;;;;;;-6.96;74.53;99957.19;4995712;28;20085;-85
2021/12/09 07:42:55;;;;;;;16.40;7.95;;;;;;;-6.93;74.59;99949.09;4988840;28;20597;-86
2021/12/09 07:45:28;;;;;;;21.92;8.73;;;;;;;-6.96;75.06;99954.56;4971642;28;20098;-85
2021/12/09 07:47:56;;;;;;;17.80;8.93;;;;;;;-6.91;74.88;99941.09;4971389;28;20057;-84
2021/12/09 07:50:28;;;;;;;13.88;7.72;;;;;;;-6.86;74.56;99946.84;4987523;28;20046;-83
2021/12/09 07:52:56;;;;;;;16.35;7.60;;;;;;;-6.87;74.79;99947.81;4981539;28;20862;-84
2021/12/09 07:55:28;;;;;;;15.10;7.30;;;;;;;-6.88;74.42;99938.28;4994093;28;20070;-84
2021/12/09 07:57:58;;;;;;;18.27;8.55;;;;;;;-7.02;74.19;99937.47;4962966;28;20054;-82
2021/12/09 08:00:33;;;;;;;16.33;8.23;;;;;;;-6.93;74.00;99949.09;4951680;28;20046;-86
2021/12/09 08:03:02;;;;;;;18.15;7.47;;;;;;;-6.98;74.05;99953.84;4987670;28;20054;-84
2021/12/09 08:05:35;;;;;;;13.85;6.93;;;;;;;-6.87;74.07;99947.81;4992772;28;20189;-84
2021/12/09 08:08:06;;;;;;;15.15;6.65;;;;;;;-6.83;73.87;99946.66;4987775;28;20510;-83
2021/12/09 08:10:34;;;;;;;16.65;8.73;;;;;;;-6.82;73.83;99956.19;4997120;28;20066;-84
2021/12/09 08:13:03;;;;;;;13.88;7.80;;;;;;;-6.73;73.60;99952.91;4979466;28;20053;-84
2021/12/09 08:15:35;;;;;;;13.60;6.90;;;;;;;-6.57;73.35;99952.63;4987891;28;20113;-84
2021/12/09 08:20:49;;;;;;;13.77;7.07;;;;;;;-6.52;72.42;99963.66;4985750;28;20054;-86
2021/12/09 08:23:18;;;;;;;17.23;8.98;;;;;;;-6.57;72.79;99950.00;4989078;28;20061;-86
2021/12/09 08:25:47;;;;;;;15.00;7.10;;;;;;;-6.43;73.11;99962.13;4991445;28;20469;-86
2021/12/09 08:28:16;;;;;;;13.88;7.30;;;;;;;-6.39;72.78;99951.28;4990348;28;20046;-86
2021/12/09 08:31:10;;;;;;;16.50;7.72;;;;;;;-6.45;72.40;99951.75;4990521;28;20050;-83
2021/12/09 08:33:40;;;;;;;16.48;8.02;;;;;;;-6.25;72.31;99963.41;4995763;28;20654;-85
2021/12/09 08:36:28;;;;;;;15.52;8.20;;;;;;;-5.34;71.15;99962.59;4982442;28;20469;-85
2021/12/09 08:39:13;;;;;;;14.70;7.72;;;;;;;-4.52;68.58;99953.50;4974754;28;20042;-85
2021/12/09 08:41:51;;;;;;;14.35;8.05;;;;;;;-3.38;65.19;99940.41;4981349;28;20097;-84
2021/12/09 08:44:18;;;;;;;17.45;8.57;;;;;;;-2.77;63.72;99960.63;4990999;28;20054;-86
2021/12/09 08:46:47;;;;;;;14.75;8.07;;;;;;;-2.75;62.22;99958.69;4973587;28;20431;-86
2021/12/09 08:49:17;;;;;;;12.80;6.43;;;;;;;-2.78;61.73;99958.16;4988843;28;20505;-83
2021/12/09 08:51:49;;;;;;;19.38;8.57;;;;;;;-3.68;63.01;99943.88;4989924;28;20072;-86
2021/12/09 08:54:22;;;;;;;14.65;8.25;;;;;;;-4.32;65.18;99960.63;4980008;28;20466;-85
2021/12/09 08:56:51;;;;;;;11.63;6.97;;;;;;;-4.82;66.27;99958.47;4986917;28;20054;-84
2021/12/09 08:59:19;;;;;;;18.83;9.38;;;;;;;-4.61;66.53;99955.06;4986914;28;20054;-84
2021/12/09 09:02:07;;;;;;;14.55;8.20;;;;;;;-3.84;64.96;99956.69;4983990;28;20477;-85
2021/12/09 09:04:42;;;;;;;15.10;8.80;;;;;;;-2.88;62.42;99945.72;4990234;28;20051;-87
2021/12/09 09:07:09;;;;;;;15.30;7.85;;;;;;;-2.07;60.09;99952.63;4979137;28;20564;-85
2021/12/09 09:09:38;;;;;;;12.88;8.10;;;;;;;-1.35;57.99;99954.72;4996097;28;20054;-85
2021/12/09 09:12:09;;;;;;;15.65;8.57;;;;;;;-0.93;57.20;99948.97;4996766;28;20335;-86
2021/12/09 09:14:45;;;;;;;17.35;10.32;;;;;;;-0.62;55.85;99945.16;4989140;28;20540;-85
2021/12/09 09:17:18;;;;;;;15.93;9.43;;;;;;;-0.64;55.89;99947.97;4971040;28;20755;-85
2021/12/09 09:19:46;;;;;;;21.98;8.68;;;;;;;-0.38;55.84;99947.22;4969359;28;20042;-86
2021/12/09 09:22:13;;;;;;;16.35;10.35;;;;;;;-1.08;54.70;99925.75;4612975;28;9999874;-88
2021/12/09 09:24:44;;;;;;;16.27;8.50;;;;;;;-1.41;55.63;99952.66;4988944;28;20257;-88
2021/12/09 09:27:12;;;;;;;16.60;7.45;;;;;;;-1.65;55.44;99954.94;4976628;28;20283;-85
2021/12/09 09:29:48;;;;;;;15.73;9.68;;;;;;;-1.72;55.90;99936.16;4954145;28;20754;-86
2021/12/09 09:32:18;;;;;;;16.55;8.60;;;;;;;-1.64;55.24;99948.69;4962782;28;20127;-87
2021/12/09 09:34:47;;;;;;;17.17;9.80;;;;;;;-1.56;54.61;99956.75;4992301;28;20418;-89
2021/12/09 09:37:28;;;;;;;22.65;10.40;;;;;;;-1.58;54.69;99950.75;4986398;28;20144;-87
2021/12/09 09:40:14;;;;;;;13.75;8.55;;;;;;;-1.44;54.73;99946.78;4959431;28;20489;-85
2021/12/09 09:45:16;;;;;;;13.50;8.40;;;;;;;-0.72;53.18;99939.94;4993891;28;20054;-93
2021/12/09 09:47:45;;;;;;;14.68;8.60;;;;;;;-0.53;52.38;99945.13;4964828;28;20051;-90
2021/12/09 09:50:24;;;;;;;18.00;8.60;;;;;;;-0.42;51.44;99957.31;4956837;28;20113;-93
2021/12/09 09:52:52;;;;;;;21.02;9.73;;;;;;;-0.38;51.07;99957.84;4977008;28;20074;-88
2021/12/09 09:55:25;;;;;;;14.95;8.00;;;;;;;-0.19;50.83;99956.88;4980921;28;20505;-91
2021/12/09 09:58:09;;;;;;;15.40;8.23;;;;;;;-0.05;50.11;99965.13;4962835;28;20046;-90
2021/12/09 10:00:41;;;;;;;18.48;10.30;;;;;;;-0.06;49.92;99949.34;4983137;28;20132;-90
2021/12/09 10:03:29;;;;;;;16.23;9.05;;;;;;;-0.41;49.06;99956.31;4990547;28;20058;-90
2021/12/09 10:06:03;;;;;;;14.98;8.93;;;;;;;-0.61;49.68;99930.91;4999161;28;20050;-92
2021/12/09 10:08:32;;;;;;;20.85;9.50;;;;;;;-0.38;49.23;99941.91;4985674;28;20525;-90
2021/12/09 10:11:14;;;;;;;15.65;9.05;;;;;;;0.03;48.33;99953.75;4929129;28;20138;-88
2021/12/09 10:13:44;;;;;;;16.77;10.13;;;;;;;0.21;48.21;99940.44;4952836;28;20063;-90
2021/12/09 10:16:26;;;;;;;16.27;8.98;;;;;;;0.32;47.93;99934.88;4973465;28;20101;-90
2021/12/09 10:18:56;;;;;;;17.58;9.75;;;;;;;0.35;47.24;99915.13;4919909;28;20186;-84
2021/12/09 10:21:29;;;;;;;16.50;9.23;;;;;;;0.66;47.28;99942.06;4968442;28;20199;-85
2021/12/09 10:24:04;;;;;;;17.52;9.13;;;;;;;0.41;46.81;99947.22;4976738;28;20058;-86
2021/12/09 10:26:33;;;;;;;17.13;10.07;;;;;;;0.36;46.78;99943.38;4975660;28;20051;-87
2021/12/09 10:29:13;;;;;;;16.90;8.85;;;;;;;0.43;46.55;99947.91;4976912;28;20051;-85
2021/12/09 10:31:48;;;;;;;15.93;9.25;;;;;;;0.42;46.64;99919.66;4928897;28;20087;-86
2021/12/09 10:34:33;;;;;;;14.32;8.82;;;;;;;0.70;46.66;99942.59;4956004;28;20284;-85
2021/12/09 10:37:13;;;;;;;17.30;9.80;;;;;;;0.73;45.60;99943.09;4981413;28;20096;-86
2021/12/09 10:40:06;;;;;;;13.95;8.77;;;;;;;1.06;45.36;99945.91;4989183;28;20087;-85
2021/12/09 10:42:39;;;;;;;17.15;8.77;;;;;;;0.56;44.92;99936.88;4978544;28;20093;-85
2021/12/09 10:45:08;;;;;;;15.27;8.75;;;;;;;0.74;46.04;99934.13;4985133;28;20093;-91
2021/12/09 10:50:41;;;;;;;17.75;9.57;;;;;;;0.92;44.74;99936.72;4968691;28;20051;-84
2021/12/09 10:56:03;;;;;;;13.43;8.05;;;;;;;0.31;44.39;99935.03;4986877;28;20054;-91
2021/12/09 10:58:35;;;;;;;15.77;9.50;;;;;;;0.29;45.23;99961.75;4963324;28;20478;-87
2021/12/09 11:01:14;;;;;;;14.40;7.82;;;;;;;0.30;44.42;99960.75;4984198;28;20146;-86
2021/12/09 11:03:55;;;;;;;15.60;8.10;;;;;;;-0.30;44.46;99952.63;4961556;28;20114;-90
2021/12/09 11:06:38;;;;;;;12.70;8.70;;;;;;;-0.38;45.79;99960.47;4978509;28;20446;-86
2021/12/09 11:09:13;;;;;;;18.33;8.90;;;;;;;-0.16;45.19;99957.38;4960601;28;20046;-89
2021/12/09 11:11:42;;;;;;;15.23;8.57;;;;;;;0.08;44.51;99961.25;4974043;28;20054;-87
2021/12/09 11:14:14;;;;;;;14.35;8.40;;;;;;;-0.16;44.82;99975.97;4975002;28;20058;-86
2021/12/09 11:16:44;;;;;;;18.48;8.25;;;;;;;-0.11;44.93;99979.00;4989893;28;20081;-85
2021/12/09 11:19:47;;;;;;;15.80;8.50;;;;;;;0.16;44.82;99979.91;4970194;28;20540;-81
2021/12/09 11:22:17;;;;;;;;;;;;;;;0.08;45.30;99985.97;4986479;28;20521;-85
2021/12/09 11:24:57;;;;;;;17.08;8.15;;;;;;;-0.30;45.06;99966.72;4982546;28;19925;-83
2021/12/09 11:27:34;;;;;;;17.35;8.65;;;;;;;0.08;45.23;99995.78;5004020;28;20058;-85
2021/12/09 11:30:11;;;;;;;11.95;7.18;;;;;;;-0.06;44.68;99995.28;4969372;28;20146;-84
2021/12/09 11:32:48;;;;;;;15.30;8.38;;;;;;;-0.27;45.71;99995.59;4989831;28;20050;-83
2021/12/09 11:35:30;;;;;;;16.45;8.27;;;;;;;-0.02;45.05;99990.53;5004442;28;20054;-84
2021/12/09 11:38:23;;;;;;;14.13;7.70;;;;;;;-0.12;45.01;99979.16;4979429;28;20051;-82
2021/12/09 11:40:57;;;;;;;14.68;8.88;;;;;;;0.16;45.78;99998.50;4983141;28;20174;-85
2021/12/09 11:43:26;;;;;;;14.85;8.35;;;;;;;0.25;45.03;100002.84;5001728;28;20074;-83
2021/12/09 11:45:57;;;;;;;15.60;9.25;;;;;;;-0.09;44.97;100013.34;4973802;28;20490;-81
2021/12/09 11:48:25;;;;;;;14.68;9.20;;;;;;;-0.44;46.21;100001.72;4976837;28;20707;-86
2021/12/09 11:50:53;;;;;;;15.15;9.13;;;;;;;-0.31;45.80;100011.97;4954704;28;20505;-87
2021/12/09 11:53:23;;;;;;;18.20;10.15;;;;;;;-0.62;45.48;100014.94;4988705;28;20128;-87
2021/12/09 11:56:02;;;;;;;19.88;9.68;;;;;;;-0.61;45.86;100002.50;4987345;28;20055;-82
2021/12/09 11:58:49;;;;;;;17.00;9.52;;;;;;;-0.81;45.97;100022.97;4987289;28;20461;-84